METAR Formatted Surface Weather Observation
Issued by NWS

Home | Current Version | Previous Version | Text Only | Print | Product List | Glossary On
Versions: 1 2
000
SAHW31 PHFO 251856
MTRMKK
METAR PHMK 251854Z AUTO 04014G23KT 10SM CLR 27/21 A3005 RMK AO2
SLPNO T02720211 TSNO $



USA.gov is the U.S. government's official web portal to all federal, state and local government web resources and services.